Time;durP1;ratioP1;P1;durP2;ratioP2;P2;SDS_P1;SDS_P2;PMS_P1;PMS_P2;Temp;Humidity;BMP_temperature;BMP_pressure;BME280_temperature;BME280_humidity;BME280_pressure;Samples;Min_cycle;Max_cycle;Signal;HPM_P1;HPM_P2
2023/06/24 00:00:29;;;;;;;5.90;5.30;;;25.60;46.20;;;;;;4966232;28;20237;-48
2023/06/24 00:02:54;;;;;;;5.87;5.27;;;25.60;46.10;;;;;;4971000;28;20200;-47
2023/06/24 00:05:20;;;;;;;5.53;4.90;;;25.60;45.60;;;;;;4967176;28;20443;-44
2023/06/24 00:07:45;;;;;;;6.37;5.77;;;25.60;45.60;;;;;;4966413;28;20730;-46
2023/06/24 00:10:12;;;;;;;5.13;4.60;;;25.60;45.90;;;;;;4967196;28;20674;-47
2023/06/24 00:12:39;;;;;;;5.60;5.10;;;25.60;46.20;;;;;;4969905;28;20196;-47
2023/06/24 00:15:06;;;;;;;4.47;4.17;;;25.60;45.80;;;;;;4964777;28;20493;-46
2023/06/24 00:17:31;;;;;;;5.17;4.77;;;25.60;45.90;;;;;;4968468;28;20454;-45
2023/06/24 00:19:57;;;;;;;6.20;5.03;;;25.60;45.80;;;;;;4963032;28;20478;-44
2023/06/24 00:22:23;;;;;;;4.70;4.30;;;25.60;45.60;;;;;;4969482;28;20195;-46
2023/06/24 00:24:48;;;;;;;5.13;4.63;;;25.60;45.40;;;;;;4962918;28;20238;-47
2023/06/24 00:27:14;;;;;;;8.90;4.40;;;25.60;45.70;;;;;;4968201;28;20291;-47
2023/06/24 00:29:39;;;;;;;5.23;4.67;;;25.50;46.30;;;;;;4961736;28;20199;-45
2023/06/24 00:32:06;;;;;;;5.00;4.50;;;25.50;46.30;;;;;;4968257;28;20210;-47
2023/06/24 00:34:31;;;;;;;8.67;4.63;;;25.60;46.30;;;;;;4967307;28;20223;-43
2023/06/24 00:36:57;;;;;;;5.07;4.57;;;25.50;46.40;;;;;;4964749;28;20477;-45
2023/06/24 00:39:22;;;;;;;5.63;4.87;;;25.30;46.20;;;;;;4966631;28;20199;-48
2023/06/24 00:41:48;;;;;;;8.60;5.10;;;25.40;46.70;;;;;;4969038;28;20199;-46
2023/06/24 00:44:14;;;;;;;4.93;4.53;;;25.50;46.70;;;;;;4963190;28;20191;-45
2023/06/24 00:46:40;;;;;;;4.80;4.40;;;25.60;46.50;;;;;;4970036;28;20198;-44
2023/06/24 00:49:06;;;;;;;6.47;4.13;;;25.60;46.30;;;;;;4964543;28;20199;-46
2023/06/24 00:51:34;;;;;;;5.93;5.43;;;25.80;45.90;;;;;;4965954;28;20990;-46
2023/06/24 00:54:00;;;;;;;5.77;5.27;;;25.90;45.60;;;;;;4968282;28;20223;-45
2023/06/24 00:56:33;;;;;;;4.97;4.47;;;25.90;45.40;;;;;;4960836;28;20448;-43
2023/06/24 00:59:02;;;;;;;4.77;4.37;;;25.80;45.60;;;;;;4961338;28;20453;-46
2023/06/24 01:01:35;;;;;;;4.93;4.40;;;25.50;45.70;;;;;;4966530;28;20443;-47
2023/06/24 01:04:02;;;;;;;5.33;4.77;;;25.40;46.60;;;;;;4966278;28;20463;-46
2023/06/24 01:06:31;;;;;;;4.10;3.80;;;25.40;46.50;;;;;;4964571;28;20536;-48
2023/06/24 01:08:59;;;;;;;5.20;4.70;;;25.50;46.40;;;;;;4961788;28;20469;-43
2023/06/24 01:11:29;;;;;;;4.53;4.13;;;25.60;46.30;;;;;;4963702;28;20816;-45
2023/06/24 01:13:55;;;;;;;4.60;4.20;;;25.60;46.20;;;;;;4968328;28;20490;-46
2023/06/24 01:16:42;;;;;;;5.07;4.47;;;25.80;45.80;;;;;;4966658;28;21276;-43
2023/06/24 01:19:45;;;;;;;5.10;4.60;;;25.80;45.70;;;;;;4965066;28;20446;-45
2023/06/24 01:22:36;;;;;;;4.70;4.30;;;25.90;45.50;;;;;;4968573;28;20462;-46
2023/06/24 01:25:36;;;;;;;6.10;5.07;;;26.00;45.40;;;;;;4968619;28;20525;-44
2023/06/24 01:28:19;;;;;;;4.60;4.20;;;26.00;45.10;;;;;;4968617;28;22616;-45
2023/06/24 01:30:48;;;;;;;4.80;4.40;;;26.10;45.20;;;;;;4962927;28;20832;-47
2023/06/24 01:33:22;;;;;;;5.07;4.60;;;26.10;45.10;;;;;;4964701;28;20447;-44
2023/06/24 01:35:48;;;;;;;5.23;4.77;;;26.10;44.90;;;;;;4968119;28;20504;-46
2023/06/24 01:38:44;;;;;;;5.30;4.80;;;26.10;44.80;;;;;;4969422;28;20434;-44
2023/06/24 01:41:13;;;;;;;5.40;4.90;;;26.10;44.70;;;;;;4963802;28;20783;-45
2023/06/24 01:43:42;;;;;;;4.73;4.33;;;26.10;44.80;;;;;;4968491;28;20537;-43
2023/06/24 01:46:10;;;;;;;4.60;4.30;;;26.20;44.70;;;;;;4970245;28;20500;-43
2023/06/24 01:48:42;;;;;;;7.03;4.57;;;26.10;44.90;;;;;;4966905;28;20558;-45
2023/06/24 01:51:14;;;;;;;5.00;4.37;;;26.20;44.90;;;;;;4968432;28;20529;-47
2023/06/24 01:53:44;;;;;;;4.50;4.10;;;26.10;44.60;;;;;;4963177;28;20455;-43
2023/06/24 01:56:13;;;;;;;4.27;3.87;;;26.10;44.90;;;;;;4969311;28;20519;-45
2023/06/24 01:58:42;;;;;;;4.70;4.27;;;26.10;44.70;;;;;;4970032;28;20446;-45
2023/06/24 02:01:08;;;;;;;5.53;5.03;;;26.10;44.60;;;;;;4966881;28;20439;-43
2023/06/24 02:03:35;;;;;;;5.20;4.80;;;26.10;44.40;;;;;;4963115;28;20537;-44
2023/06/24 02:06:02;;;;;;;4.77;4.37;;;26.10;44.40;;;;;;4964695;28;20474;-43
2023/06/24 02:08:34;;;;;;;4.43;4.03;;;26.10;44.50;;;;;;4966192;28;20446;-47
2023/06/24 02:11:01;;;;;;;4.13;3.70;;;26.10;44.50;;;;;;4966134;28;20442;-43
2023/06/24 02:13:31;;;;;;;4.73;4.33;;;26.10;44.70;;;;;;4970138;28;20450;-46
2023/06/24 02:15:58;;;;;;;6.10;4.60;;;26.00;45.00;;;;;;4961779;28;20462;-42
2023/06/24 02:18:26;;;;;;;4.57;4.17;;;26.00;45.00;;;;;;4964481;28;20522;-44
2023/06/24 02:20:53;;;;;;;4.97;4.57;;;26.00;45.00;;;;;;4967389;28;21036;-43
2023/06/24 02:23:20;;;;;;;4.97;4.47;;;26.00;44.80;;;;;;4963510;28;20578;-43
2023/06/24 02:25:47;;;;;;;4.33;3.93;;;26.10;44.70;;;;;;4962641;28;20851;-43
2023/06/24 02:28:14;;;;;;;5.53;5.03;;;26.10;44.70;;;;;;4970230;28;20454;-43
2023/06/24 02:30:41;;;;;;;5.30;4.80;;;26.00;44.90;;;;;;4960625;28;20440;-43
2023/06/24 02:33:07;;;;;;;4.17;3.80;;;26.00;44.80;;;;;;4968689;28;20500;-42
2023/06/24 02:35:33;;;;;;;4.77;4.37;;;26.00;44.80;;;;;;4968598;28;20490;-43
2023/06/24 02:37:59;;;;;;;5.67;4.33;;;26.00;44.80;;;;;;4967034;28;20199;-43
2023/06/24 02:40:25;;;;;;;4.60;4.20;;;26.00;44.70;;;;;;4972040;28;20326;-42
2023/06/24 02:42:51;;;;;;;4.53;4.13;;;26.00;44.70;;;;;;4966969;28;20192;-43
2023/06/24 02:45:16;;;;;;;4.67;4.27;;;26.00;44.50;;;;;;4963657;28;20453;-43
2023/06/24 02:47:45;;;;;;;5.07;4.50;;;26.00;44.40;;;;;;4966034;28;20677;-44
2023/06/24 02:50:12;;;;;;;5.00;4.60;;;25.90;44.40;;;;;;4960714;28;20278;-43
2023/06/24 02:52:38;;;;;;;5.07;4.63;;;25.90;44.50;;;;;;4961883;28;20449;-43
2023/06/24 02:55:05;;;;;;;4.67;4.27;;;25.80;44.70;;;;;;4964961;28;20508;-44
2023/06/24 02:57:32;;;;;;;4.40;4.10;;;25.80;44.90;;;;;;4969932;28;21031;-43
2023/06/24 02:59:57;;;;;;;5.83;4.40;;;25.80;45.00;;;;;;4967921;28;20954;-42
2023/06/24 03:02:24;;;;;;;4.30;3.90;;;25.80;44.90;;;;;;4969102;28;20450;-42
2023/06/24 03:04:51;;;;;;;4.67;4.33;;;25.80;45.00;;;;;;4965376;28;20663;-44
2023/06/24 03:07:20;;;;;;;5.23;4.73;;;25.80;44.80;;;;;;4968470;28;20496;-42
2023/06/24 03:09:46;;;;;;;4.60;4.20;;;25.70;44.70;;;;;;4969310;28;20634;-45
2023/06/24 03:12:12;;;;;;;4.83;4.40;;;25.70;44.70;;;;;;4970485;28;20645;-44
2023/06/24 03:14:38;;;;;;;5.10;4.60;;;25.70;44.90;;;;;;4968770;28;20234;-43
2023/06/24 03:17:03;;;;;;;4.97;4.57;;;25.80;44.80;;;;;;4965648;28;20294;-44
2023/06/24 03:19:29;;;;;;;4.07;3.43;;;25.80;44.70;;;;;;4967343;28;20526;-43
2023/06/24 03:21:55;;;;;;;4.50;4.20;;;25.80;44.90;;;;;;4970818;28;20215;-43
2023/06/24 03:24:20;;;;;;;4.87;4.47;;;25.70;44.80;;;;;;4971674;28;20231;-43
2023/06/24 03:26:46;;;;;;;5.17;4.77;;;25.70;44.90;;;;;;4969429;28;20199;-42
2023/06/24 03:29:12;;;;;;;4.33;3.93;;;25.70;44.90;;;;;;4968301;28;20299;-44
2023/06/24 03:31:38;;;;;;;4.70;4.30;;;25.70;44.90;;;;;;4969667;28;20211;-43
2023/06/24 03:34:03;;;;;;;4.70;4.30;;;25.70;44.90;;;;;;4969076;28;20297;-43
2023/06/24 03:36:29;;;;;;;4.73;4.43;;;25.60;44.90;;;;;;4968378;28;20191;-43
2023/06/24 03:38:54;;;;;;;4.80;4.40;;;25.60;44.90;;;;;;4969728;28;20195;-42
2023/06/24 03:41:20;;;;;;;5.33;4.70;;;25.60;45.00;;;;;;4971565;28;20662;-42
2023/06/24 03:43:46;;;;;;;4.70;4.30;;;25.50;45.30;;;;;;4971016;28;20275;-43
2023/06/24 03:46:12;;;;;;;10.30;5.80;;;25.50;45.30;;;;;;4969613;28;20199;-43
2023/06/24 03:48:38;;;;;;;5.97;5.17;;;25.50;45.20;;;;;;4969326;28;20457;-43
2023/06/24 03:51:04;;;;;;;5.33;4.83;;;25.40;45.30;;;;;;4970705;28;20195;-43
2023/06/24 03:53:29;;;;;;;4.80;4.07;;;25.40;45.30;;;;;;4958433;28;20501;-43
2023/06/24 03:55:55;;;;;;;4.67;4.27;;;25.40;45.40;;;;;;4958765;28;20259;-44
2023/06/24 03:58:21;;;;;;;4.63;4.23;;;25.40;45.50;;;;;;4966508;28;20246;-43
2023/06/24 04:00:49;;;;;;;5.83;4.33;;;25.40;45.60;;;;;;4967649;28;20204;-42
2023/06/24 04:03:17;;;;;;;4.70;4.20;;;25.40;45.70;;;;;;4967479;28;20199;-43
2023/06/24 04:05:43;;;;;;;4.73;4.17;;;25.40;45.80;;;;;;4966858;28;20477;-44
2023/06/24 04:08:08;;;;;;;5.73;5.20;;;25.40;45.80;;;;;;4970255;28;20478;-43
2023/06/24 04:10:34;;;;;;;4.77;4.37;;;25.40;45.90;;;;;;4966189;28;20227;-43
2023/06/24 04:12:59;;;;;;;5.40;4.90;;;25.40;45.90;;;;;;4963480;28;20199;-43
2023/06/24 04:15:25;;;;;;;5.43;5.03;;;25.40;45.80;;;;;;4966159;28;20576;-43
2023/06/24 04:17:51;;;;;;;5.80;5.30;;;25.50;45.60;;;;;;4971539;28;20195;-43
2023/06/24 04:20:16;;;;;;;4.73;4.33;;;25.60;45.60;;;;;;4970346;28;20206;-45
2023/06/24 04:22:42;;;;;;;4.93;4.53;;;25.60;45.70;;;;;;4968452;28;20561;-43
2023/06/24 04:25:08;;;;;;;4.70;4.30;;;25.50;45.70;;;;;;4965429;28;20195;-43
2023/06/24 04:27:34;;;;;;;4.40;4.00;;;25.50;45.60;;;;;;4966305;28;20199;-44
2023/06/24 04:30:01;;;;;;;4.77;4.37;;;25.50;45.80;;;;;;4966280;28;20446;-42
2023/06/24 04:32:27;;;;;;;5.03;4.60;;;25.50;46.40;;;;;;4966313;28;20446;-43
2023/06/24 04:34:53;;;;;;;5.00;4.47;;;25.60;45.70;;;;;;4970447;28;20856;-42
2023/06/24 04:37:19;;;;;;;4.43;4.03;;;25.00;46.40;;;;;;4962808;28;20666;-46
2023/06/24 04:39:45;;;;;;;6.03;5.50;;;24.50;47.80;;;;;;4967624;28;20443;-43
2023/06/24 04:42:11;;;;;;;6.10;5.20;;;24.60;48.00;;;;;;4968705;28;20629;-42
2023/06/24 04:44:37;;;;;;;4.87;4.37;;;24.50;48.30;;;;;;4962738;28;20485;-43
2023/06/24 04:47:03;;;;;;;4.53;4.13;;;24.60;47.80;;;;;;4972156;28;20227;-44
2023/06/24 04:49:28;;;;;;;5.47;4.97;;;24.50;48.30;;;;;;4964100;28;20187;-43
2023/06/24 04:51:54;;;;;;;5.50;5.00;;;24.40;48.10;;;;;;4948900;28;20506;-42
2023/06/24 04:54:20;;;;;;;6.13;5.53;;;24.50;48.40;;;;;;4957140;28;20279;-43
2023/06/24 04:56:48;;;;;;;5.60;4.70;;;24.70;48.30;;;;;;4959448;28;20553;-45
2023/06/24 04:59:14;;;;;;;6.67;5.50;;;24.80;47.80;;;;;;4960592;28;20196;-43
2023/06/24 05:01:39;;;;;;;5.03;4.63;;;24.80;47.60;;;;;;4961450;28;20453;-43
2023/06/24 05:04:05;;;;;;;5.60;5.00;;;24.50;48.30;;;;;;4970785;28;20698;-43
2023/06/24 05:06:31;;;;;;;6.93;4.80;;;24.60;48.70;;;;;;4971572;28;20532;-43
2023/06/24 05:08:56;;;;;;;5.90;5.00;;;24.80;48.30;;;;;;4971019;28;20202;-43
2023/06/24 05:11:22;;;;;;;5.27;4.87;;;24.60;48.40;;;;;;4960160;28;20195;-44
2023/06/24 05:13:47;;;;;;;5.43;4.93;;;24.60;48.60;;;;;;4967839;28;20202;-43
2023/06/24 05:16:13;;;;;;;5.37;4.70;;;24.70;48.40;;;;;;4969782;28;20533;-43
2023/06/24 05:18:38;;;;;;;5.17;4.63;;;24.90;47.90;;;;;;4951342;28;20203;-47
2023/06/24 05:21:04;;;;;;;5.90;5.30;;;25.00;47.80;;;;;;4968927;28;20206;-43
2023/06/24 05:23:29;;;;;;;5.73;5.23;;;25.20;47.50;;;;;;4963556;28;20231;-43
2023/06/24 05:25:55;;;;;;;5.53;5.03;;;25.20;47.30;;;;;;4966919;28;20199;-44
2023/06/24 05:28:21;;;;;;;4.70;4.30;;;25.50;46.90;;;;;;4964170;28;20306;-43
2023/06/24 05:30:46;;;;;;;5.13;4.60;;;25.60;46.70;;;;;;4963141;28;20654;-44
2023/06/24 05:33:12;;;;;;;4.30;4.00;;;25.70;46.60;;;;;;4964655;28;20195;-43
2023/06/24 05:35:40;;;;;;;5.07;4.67;;;25.70;46.40;;;;;;4965132;28;20313;-43
2023/06/24 05:38:06;;;;;;;5.33;4.77;;;25.80;46.40;;;;;;4970094;28;20199;-43
2023/06/24 05:40:31;;;;;;;5.63;4.70;;;25.30;47.00;;;;;;4966933;28;21193;-43
2023/06/24 05:42:57;;;;;;;5.27;4.80;;;24.80;48.10;;;;;;4966875;28;20206;-43
2023/06/24 05:45:22;;;;;;;5.27;4.77;;;24.60;48.80;;;;;;4967698;28;20195;-44
2023/06/24 05:47:48;;;;;;;6.43;4.50;;;24.70;48.60;;;;;;4969210;28;20203;-44
2023/06/24 05:50:13;;;;;;;5.10;4.70;;;24.50;49.00;;;;;;4967237;28;20202;-43
2023/06/24 05:52:39;;;;;;;5.20;4.80;;;24.70;48.70;;;;;;4969160;28;20634;-45
2023/06/24 05:55:05;;;;;;;5.10;4.60;;;24.70;48.80;;;;;;4963988;28;20238;-44
2023/06/24 05:57:31;;;;;;;4.83;4.43;;;24.40;49.40;;;;;;4968201;28;21231;-47
2023/06/24 05:59:56;;;;;;;4.90;4.50;;;24.50;49.70;;;;;;4965627;28;20207;-46
2023/06/24 06:02:22;;;;;;;5.27;4.87;;;24.80;49.10;;;;;;4964789;28;20327;-47
2023/06/24 06:04:47;;;;;;;5.27;4.87;;;24.80;48.70;;;;;;4966046;28;20570;-44
2023/06/24 06:07:13;;;;;;;4.67;4.30;;;24.70;49.30;;;;;;4968609;28;20203;-44
2023/06/24 06:09:39;;;;;;;4.90;4.50;;;24.90;48.70;;;;;;4968464;28;20669;-44
2023/06/24 06:12:05;;;;;;;5.00;4.33;;;25.20;48.30;;;;;;4969359;28;20270;-45
2023/06/24 06:14:30;;;;;;;6.23;4.63;;;25.40;47.60;;;;;;4969871;28;20321;-43
2023/06/24 06:16:56;;;;;;;5.40;4.90;;;25.60;47.40;;;;;;4974194;28;20439;-46
2023/06/24 06:19:21;;;;;;;8.00;4.70;;;25.60;47.00;;;;;;4974153;28;20650;-45
2023/06/24 06:21:49;;;;;;;5.33;4.83;;;25.70;46.80;;;;;;4971253;28;20192;-43
2023/06/24 06:24:14;;;;;;;6.00;5.37;;;25.70;46.00;;;;;;4971341;28;20231;-45
2023/06/24 06:26:44;;;;;;;5.10;4.70;;;25.80;46.60;;;;;;4969254;28;20437;-46
2023/06/24 06:29:10;;;;;;;5.27;4.77;;;25.90;46.50;;;;;;4973925;28;20666;-43
2023/06/24 06:31:36;;;;;;;5.50;5.00;;;26.10;46.10;;;;;;4974152;28;20441;-43
2023/06/24 06:34:02;;;;;;;4.77;4.37;;;26.20;45.70;;;;;;4971517;28;20842;-44
2023/06/24 06:36:28;;;;;;;6.97;6.27;;;26.40;45.30;;;;;;4970868;28;20192;-43
2023/06/24 06:38:54;;;;;;;5.20;4.70;;;26.50;44.70;;;;;;4971765;28;20449;-43
2023/06/24 06:41:24;;;;;;;5.07;4.67;;;26.70;44.50;;;;;;4972362;28;20195;-45
2023/06/24 06:43:50;;;;;;;5.00;4.60;;;26.70;44.30;;;;;;4972992;28;20278;-43
2023/06/24 06:46:16;;;;;;;4.50;4.10;;;26.80;44.40;;;;;;4972490;28;20509;-44
2023/06/24 06:48:41;;;;;;;5.60;5.20;;;26.80;44.00;;;;;;4972499;28;20865;-45
2023/06/24 06:51:07;;;;;;;5.13;4.73;;;26.90;44.00;;;;;;4970392;28;20195;-43
2023/06/24 06:53:33;;;;;;;4.90;4.50;;;27.10;43.60;;;;;;4970933;28;20348;-43
2023/06/24 06:55:58;;;;;;;4.97;4.57;;;27.20;43.50;;;;;;4971586;28;20228;-43
2023/06/24 06:58:24;;;;;;;5.20;4.63;;;27.30;43.30;;;;;;4973131;28;20635;-43
2023/06/24 07:00:50;;;;;;;5.13;4.73;;;27.40;43.10;;;;;;4968841;28;20206;-43
2023/06/24 07:03:15;;;;;;;4.70;4.20;;;27.60;42.90;;;;;;4972473;28;20435;-43
2023/06/24 07:05:41;;;;;;;5.43;4.93;;;27.70;42.50;;;;;;4969933;28;20199;-45
2023/06/24 07:08:07;;;;;;;5.10;4.70;;;27.90;42.30;;;;;;4972713;28;20195;-44
2023/06/24 07:10:33;;;;;;;7.93;4.20;;;28.00;42.00;;;;;;4972335;28;20605;-43
2023/06/24 07:12:58;;;;;;;5.23;3.60;;;28.10;41.60;;;;;;4973169;28;20222;-43
2023/06/24 07:15:27;;;;;;;4.67;4.27;;;28.20;40.80;;;;;;4971903;28;20285;-43
2023/06/24 07:17:53;;;;;;;4.40;4.07;;;28.30;40.80;;;;;;4973333;28;20218;-44
2023/06/24 07:20:22;;;;;;;4.33;3.93;;;28.40;40.40;;;;;;4969707;28;20447;-44
2023/06/24 07:22:48;;;;;;;4.83;4.33;;;28.40;39.90;;;;;;4972411;28;20438;-43
2023/06/24 07:25:13;;;;;;;4.77;4.37;;;28.40;39.60;;;;;;4971679;28;20446;-43
2023/06/24 07:27:39;;;;;;;4.60;4.20;;;28.50;39.60;;;;;;4973048;28;20275;-44
2023/06/24 07:30:06;;;;;;;5.23;4.10;;;28.40;39.80;;;;;;4972297;28;20273;-45
2023/06/24 07:32:31;;;;;;;5.70;4.70;;;28.20;40.10;;;;;;4970274;28;20183;-45
2023/06/24 07:34:57;;;;;;;4.33;3.93;;;28.30;39.80;;;;;;4972054;28;20486;-44
2023/06/24 07:37:24;;;;;;;5.10;4.07;;;28.20;39.50;;;;;;4972176;28;20647;-44
2023/06/24 07:39:49;;;;;;;4.27;3.83;;;28.30;39.60;;;;;;4971550;28;20643;-44
2023/06/24 07:42:18;;;;;;;4.63;4.03;;;28.60;38.50;;;;;;4971642;28;20437;-43
2023/06/24 07:44:45;;;;;;;4.80;3.97;;;28.80;38.20;;;;;;4971732;28;20203;-44
2023/06/24 07:47:11;;;;;;;5.00;4.60;;;29.00;38.10;;;;;;4972516;28;20545;-44
2023/06/24 07:49:36;;;;;;;4.53;4.13;;;29.10;37.50;;;;;;4971833;28;20570;-44
2023/06/24 07:52:02;;;;;;;4.13;3.83;;;29.20;37.50;;;;;;4972578;28;20647;-44
2023/06/24 07:54:28;;;;;;;4.33;4.00;;;29.40;36.90;;;;;;4971032;28;20230;-44
2023/06/24 07:56:53;;;;;;;4.30;4.00;;;29.30;36.80;;;;;;4972368;28;20265;-44
2023/06/24 07:59:19;;;;;;;3.90;3.50;;;29.40;36.80;;;;;;4971610;28;20218;-43
2023/06/24 08:01:45;;;;;;;3.90;3.60;;;29.50;36.20;;;;;;4969797;28;20225;-44
2023/06/24 08:04:10;;;;;;;4.00;3.60;;;29.20;36.60;;;;;;4972120;28;20210;-43
2023/06/24 08:06:36;;;;;;;4.40;4.00;;;29.30;36.90;;;;;;4973020;28;20282;-43
2023/06/24 08:09:01;;;;;;;3.90;3.60;;;29.40;35.80;;;;;;4972864;28;20618;-44
2023/06/24 08:11:27;;;;;;;4.07;3.70;;;29.20;35.20;;;;;;4971405;28;20191;-44
2023/06/24 08:13:52;;;;;;;4.30;3.83;;;29.20;35.90;;;;;;4970970;28;20342;-43
2023/06/24 08:16:20;;;;;;;3.83;3.53;;;29.30;35.70;;;;;;4956953;28;20191;-45
2023/06/24 08:18:46;;;;;;;5.83;4.30;;;29.20;36.30;;;;;;4972325;28;20198;-44
2023/06/24 08:21:12;;;;;;;4.27;3.90;;;29.50;36.70;;;;;;4972377;28;20458;-45
2023/06/24 08:23:37;;;;;;;4.47;4.13;;;29.90;35.30;;;;;;4971195;28;21352;-44
2023/06/24 08:26:03;;;;;;;4.07;3.77;;;30.00;35.30;;;;;;4972697;28;20199;-46
2023/06/24 08:28:28;;;;;;;9.03;5.13;;;30.10;34.80;;;;;;4970463;28;20718;-47
2023/06/24 08:30:54;;;;;;;4.10;3.80;;;30.20;34.20;;;;;;4971038;28;20286;-47
2023/06/24 08:33:20;;;;;;;6.00;4.07;;;30.30;34.10;;;;;;4967180;28;21976;-46
2023/06/24 08:35:45;;;;;;;4.13;3.83;;;30.50;33.90;;;;;;4972251;28;20738;-46
2023/06/24 08:38:11;;;;;;;4.37;3.83;;;30.00;34.50;;;;;;4967478;28;20715;-48
2023/06/24 08:40:39;;;;;;;4.70;4.30;;;30.30;34.80;;;;;;4968226;28;20203;-47
2023/06/24 08:43:06;;;;;;;4.53;4.13;;;30.40;33.80;;;;;;4971388;28;20194;-46
2023/06/24 08:45:31;;;;;;;4.30;3.90;;;30.50;33.40;;;;;;4970491;28;20446;-47
2023/06/24 08:48:00;;;;;;;4.70;4.00;;;30.80;34.30;;;;;;4972450;28;20442;-47
2023/06/24 08:50:31;;;;;;;4.60;4.03;;;31.10;33.50;;;;;;4969146;28;20223;-45
2023/06/24 08:52:57;;;;;;;4.00;3.70;;;31.20;32.70;;;;;;4971209;28;20485;-47
2023/06/24 08:55:27;;;;;;;5.10;4.13;;;31.20;32.80;;;;;;4970042;28;20569;-44
2023/06/24 08:57:53;;;;;;;4.33;4.00;;;31.40;33.00;;;;;;4965754;28;20451;-45
2023/06/24 09:00:19;;;;;;;4.30;3.90;;;31.50;32.30;;;;;;4969475;28;20439;-46
2023/06/24 09:02:45;;;;;;;5.03;4.27;;;31.70;31.80;;;;;;4968176;28;20457;-45
2023/06/24 09:05:10;;;;;;;4.30;3.97;;;31.90;32.30;;;;;;4968187;28;20199;-44
2023/06/24 09:07:37;;;;;;;4.77;4.00;;;32.10;31.40;;;;;;4971316;28;20435;-48
2023/06/24 09:10:03;;;;;;;4.90;4.40;;;32.20;31.90;;;;;;4969070;28;20202;-46
2023/06/24 09:12:32;;;;;;;4.80;4.13;;;32.10;30.70;;;;;;4962514;28;20531;-44
2023/06/24 09:14:57;;;;;;;4.53;4.13;;;31.90;31.70;;;;;;4968955;28;21004;-44
2023/06/24 09:17:23;;;;;;;3.80;3.60;;;31.80;31.00;;;;;;4967987;28;20458;-46
2023/06/24 09:19:50;;;;;;;4.73;4.33;;;31.90;31.10;;;;;;4968344;28;20195;-48
2023/06/24 09:22:17;;;;;;;4.57;4.17;;;31.50;31.40;;;;;;4969962;28;20191;-45
2023/06/24 09:24:49;;;;;;;4.43;4.07;;;31.10;31.90;;;;;;4950846;28;20532;-48
2023/06/24 09:27:16;;;;;;;4.20;3.80;;;31.20;32.70;;;;;;4969687;28;20533;-46
2023/06/24 09:29:43;;;;;;;4.13;3.83;;;31.30;31.50;;;;;;4966588;28;20651;-45
2023/06/24 09:32:09;;;;;;;4.37;4.07;;;31.50;31.60;;;;;;4968902;28;20451;-46
2023/06/24 09:34:35;;;;;;;4.40;4.00;;;31.90;31.00;;;;;;4964782;28;20494;-48
2023/06/24 09:37:01;;;;;;;4.40;4.00;;;32.20;31.20;;;;;;4967990;28;20522;-49
2023/06/24 09:39:30;;;;;;;4.00;3.70;;;32.60;29.70;;;;;;4971368;28;20541;-45
2023/06/24 09:42:00;;;;;;;4.00;3.70;;;32.90;29.80;;;;;;4971118;28;20202;-47
2023/06/24 09:44:27;;;;;;;4.47;4.07;;;33.00;28.70;;;;;;4970613;28;20437;-44
2023/06/24 09:46:56;;;;;;;4.10;3.70;;;33.20;29.30;;;;;;4964175;28;20442;-46
2023/06/24 09:49:22;;;;;;;4.33;4.03;;;33.40;29.00;;;;;;4973248;28;20454;-45
2023/06/24 09:51:56;;;;;;;5.67;4.17;;;33.60;28.30;;;;;;4967887;28;20504;-45
2023/06/24 09:54:24;;;;;;;4.47;4.03;;;33.80;27.90;;;;;;4965069;28;20265;-45
2023/06/24 09:56:50;;;;;;;3.93;3.67;;;33.60;28.20;;;;;;4972256;28;20486;-46
2023/06/24 09:59:19;;;;;;;3.97;3.70;;;33.50;27.80;;;;;;4970065;28;20454;-45
2023/06/24 10:01:47;;;;;;;6.30;4.27;;;33.40;28.30;;;;;;4971423;28;20478;-46
2023/06/24 10:04:17;;;;;;;4.27;3.97;;;32.80;28.60;;;;;;4972814;28;20934;-44
2023/06/24 10:06:43;;;;;;;4.73;4.00;;;32.20;29.50;;;;;;4974030;28;20493;-46
2023/06/24 10:09:09;;;;;;;4.10;3.70;;;32.40;29.50;;;;;;4969875;28;20435;-47
2023/06/24 10:11:36;;;;;;;3.83;3.53;;;32.70;29.40;;;;;;4962495;28;20442;-45
2023/06/24 10:14:04;;;;;;;4.73;4.33;;;32.90;28.80;;;;;;4971527;28;20532;-46
2023/06/24 10:16:30;;;;;;;4.80;4.40;;;33.10;28.50;;;;;;4973581;28;20470;-46
2023/06/24 10:19:05;;;;;;;4.23;3.93;;;33.40;28.20;;;;;;4972268;28;20485;-45
2023/06/24 10:21:50;;;;;;;3.97;3.67;;;33.40;28.40;;;;;;4970214;28;20194;-47
2023/06/24 10:24:32;;;;;;;16.73;5.40;;;33.70;28.20;;;;;;4960955;28;20530;-45
2023/06/24 10:27:09;;;;;;;7.97;3.60;;;33.30;28.40;;;;;;4955949;28;21013;-45
2023/06/24 10:29:38;;;;;;;4.23;3.63;;;33.40;28.20;;;;;;4972239;28;20456;-45
2023/06/24 10:32:08;;;;;;;4.07;3.77;;;33.50;28.20;;;;;;4971393;28;20454;-45
2023/06/24 10:34:37;;;;;;;4.07;3.73;;;33.60;27.90;;;;;;4955022;28;20852;-47
2023/06/24 10:37:17;;;;;;;3.90;3.60;;;33.40;28.30;;;;;;4972916;28;20581;-47
2023/06/24 10:39:51;;;;;;;3.80;3.50;;;33.80;28.20;;;;;;4967199;28;20855;-45
2023/06/24 10:42:42;;;;;;;3.90;3.60;;;34.10;27.60;;;;;;4972461;28;20450;-45
2023/06/24 10:45:15;;;;;;;5.93;3.23;;;33.70;27.40;;;;;;4948244;28;20486;-49
2023/06/24 10:47:43;;;;;;;4.40;4.10;;;33.70;27.50;;;;;;4967965;28;20458;-46
2023/06/24 10:50:10;;;;;;;3.77;3.47;;;33.90;26.80;;;;;;4968332;28;20498;-46
2023/06/24 10:52:44;;;;;;;3.77;3.47;;;34.40;26.10;;;;;;4972408;28;20517;-45
2023/06/24 10:55:10;;;;;;;3.40;3.20;;;34.60;26.30;;;;;;4972016;28;20509;-48
2023/06/24 10:57:36;;;;;;;5.93;3.73;;;34.90;26.10;;;;;;4969630;28;20451;-45
2023/06/24 11:00:03;;;;;;;3.97;3.67;;;33.90;26.10;;;;;;4970349;28;20545;-46
2023/06/24 11:02:29;;;;;;;3.60;3.30;;;34.00;26.60;;;;;;4971107;28;20854;-44
2023/06/24 11:05:00;;;;;;;4.37;3.77;;;34.40;27.00;;;;;;4972449;28;20442;-44
2023/06/24 11:07:28;;;;;;;3.97;3.67;;;34.80;26.20;;;;;;4972863;28;20191;-48
2023/06/24 11:09:55;;;;;;;4.30;3.90;;;35.10;25.60;;;;;;4972226;28;20451;-46
2023/06/24 11:12:29;;;;;;;6.63;3.93;;;35.30;25.50;;;;;;4970302;28;20506;-45
2023/06/24 11:15:00;;;;;;;3.83;3.53;;;35.60;25.50;;;;;;4967581;28;20489;-46
2023/06/24 11:17:27;;;;;;;4.20;3.90;;;35.80;26.30;;;;;;4971126;28;20542;-48
2023/06/24 11:19:57;;;;;;;3.83;3.53;;;36.10;25.80;;;;;;4972507;28;20446;-45
2023/06/24 11:22:24;;;;;;;3.70;3.47;;;36.20;25.20;;;;;;4972997;28;20442;-46
2023/06/24 11:24:49;;;;;;;4.30;3.10;;;36.30;25.80;;;;;;4970085;28;20537;-45
2023/06/24 11:27:15;;;;;;;3.70;3.40;;;36.40;26.10;;;;;;4965730;28;20446;-44
2023/06/24 11:29:41;;;;;;;4.10;3.27;;;36.60;24.90;;;;;;4962639;28;20206;-49
2023/06/24 11:32:08;;;;;;;3.60;3.40;;;36.70;24.70;;;;;;4970421;28;20446;-46
2023/06/24 11:34:38;;;;;;;4.33;4.03;;;36.80;24.50;;;;;;4969341;28;20341;-45
2023/06/24 11:37:14;;;;;;;5.03;3.40;;;36.70;24.20;;;;;;4965975;28;20446;-46
2023/06/24 11:39:40;;;;;;;3.87;3.57;;;36.80;24.60;;;;;;4969011;28;20569;-45
2023/06/24 11:42:08;;;;;;;4.13;3.83;;;36.90;24.40;;;;;;4970272;28;20869;-46
2023/06/24 11:44:33;;;;;;;4.00;3.70;;;37.10;24.50;;;;;;4965753;28;20203;-46
2023/06/24 11:47:07;;;;;;;3.60;3.40;;;37.20;23.60;;;;;;4970958;28;20419;-46
2023/06/24 11:49:47;;;;;;;3.27;3.07;;;37.40;24.20;;;;;;4969577;28;20198;-45
2023/06/24 11:52:12;;;;;;;4.67;3.40;;;37.30;23.60;;;;;;4965484;28;20442;-46
2023/06/24 11:54:41;;;;;;;3.97;3.57;;;37.10;24.10;;;;;;4970497;28;20836;-44
2023/06/24 11:57:07;;;;;;;3.90;3.60;;;37.00;23.60;;;;;;4961726;28;20199;-45
2023/06/24 11:59:32;;;;;;;3.83;3.40;;;37.10;23.40;;;;;;4958369;28;20969;-46
2023/06/24 12:02:03;;;;;;;4.23;3.83;;;37.20;23.00;;;;;;4966062;28;20203;-46
2023/06/24 12:04:33;;;;;;;3.77;3.43;;;37.20;23.20;;;;;;4962029;28;20183;-47
2023/06/24 12:06:59;;;;;;;4.00;3.70;;;37.30;23.20;;;;;;4968665;28;20472;-45
2023/06/24 12:09:25;;;;;;;3.73;3.53;;;37.40;23.20;;;;;;4965937;28;21148;-45
2023/06/24 12:11:51;;;;;;;3.57;3.27;;;37.60;22.30;;;;;;4966294;28;20455;-45
2023/06/24 12:14:17;;;;;;;4.40;4.10;;;37.60;22.50;;;;;;4963052;28;20720;-46
2023/06/24 12:16:43;;;;;;;4.57;4.00;;;36.80;22.70;;;;;;4971124;28;20548;-44
2023/06/24 12:19:09;;;;;;;4.20;3.80;;;36.40;23.00;;;;;;4966367;28;20659;-44
2023/06/24 12:21:35;;;;;;;4.20;3.87;;;35.40;23.60;;;;;;4966491;28;20307;-44
2023/06/24 12:24:01;;;;;;;3.90;3.60;;;35.50;24.00;;;;;;4959367;28;20266;-44
2023/06/24 12:26:27;;;;;;;4.00;3.80;;;35.60;23.90;;;;;;4964566;28;20989;-44
2023/06/24 12:28:58;;;;;;;3.50;3.30;;;35.90;24.20;;;;;;4968213;28;20478;-44
2023/06/24 12:31:24;;;;;;;3.97;3.67;;;36.30;23.90;;;;;;4961066;28;20261;-44
2023/06/24 12:33:51;;;;;;;4.17;3.87;;;36.40;24.10;;;;;;4963835;28;20450;-44
2023/06/24 12:36:17;;;;;;;4.17;3.87;;;36.70;24.10;;;;;;4959896;28;20232;-45
2023/06/24 12:38:43;;;;;;;3.50;3.30;;;36.70;23.70;;;;;;4963658;28;20488;-44
2023/06/24 12:41:08;;;;;;;4.17;3.87;;;36.80;24.00;;;;;;4963149;28;20533;-45
2023/06/24 12:43:34;;;;;;;3.73;3.43;;;37.00;23.70;;;;;;4963752;28;20233;-44
2023/06/24 12:45:59;;;;;;;4.03;3.43;;;37.10;23.70;;;;;;4963946;28;20737;-44
2023/06/24 12:48:26;;;;;;;3.77;3.47;;;37.20;23.20;;;;;;4964026;28;20239;-45